createdAt,value
2019-03-26T00:00:09.508Z,99070.00
2019-03-26T00:02:38.776Z,99067.00
2019-03-26T00:05:08.055Z,99069.00
2019-03-26T00:07:37.318Z,99065.00
2019-03-26T00:10:06.648Z,99072.00
2019-03-26T00:12:35.908Z,99085.00
2019-03-26T00:15:06.518Z,99089.00
2019-03-26T00:17:35.777Z,99076.00
2019-03-26T00:20:06.557Z,99083.00
2019-03-26T00:22:35.821Z,99094.00
2019-03-26T00:25:06.197Z,99099.00
2019-03-26T00:27:35.878Z,99093.00
2019-03-26T00:30:06.061Z,99097.00
2019-03-26T00:32:35.599Z,99104.00
2019-03-26T00:35:05.130Z,99101.00
2019-03-26T00:37:34.396Z,99105.00
2019-03-26T00:40:04.241Z,99111.00
2019-03-26T00:42:33.495Z,99112.00
2019-03-26T00:45:02.773Z,99112.00
2019-03-26T00:47:32.405Z,99119.00
2019-03-26T00:50:01.691Z,99118.00
2019-03-26T00:52:31.012Z,99131.00
2019-03-26T00:55:00.344Z,99128.00
2019-03-26T00:57:29.546Z,99134.00
2019-03-26T00:59:58.831Z,99129.00
2019-03-26T01:02:28.099Z,99126.00
2019-03-26T01:04:57.350Z,99134.00
2019-03-26T01:07:26.627Z,99129.00
2019-03-26T01:09:55.891Z,99136.00
2019-03-26T01:12:25.187Z,99134.00
2019-03-26T01:14:54.452Z,99137.00
2019-03-26T01:17:23.728Z,99135.00
2019-03-26T01:19:52.990Z,99151.00
2019-03-26T01:22:22.263Z,99151.00
2019-03-26T01:24:51.524Z,99144.00
2019-03-26T01:27:20.799Z,99139.00
2019-03-26T01:29:50.062Z,99150.00
2019-03-26T01:32:19.337Z,99147.00
2019-03-26T01:34:48.601Z,99134.00
2019-03-26T01:37:17.938Z,99143.00
2019-03-26T01:39:47.211Z,99138.00
2019-03-26T01:42:16.482Z,99136.00
2019-03-26T01:44:45.827Z,99147.00
2019-03-26T01:47:15.036Z,99133.00
2019-03-26T01:49:44.294Z,99140.00
2019-03-26T01:52:13.574Z,99140.00
2019-03-26T01:54:42.837Z,99140.00
2019-03-26T01:57:12.120Z,99145.00
2019-03-26T01:59:41.383Z,99137.00
2019-03-26T02:02:10.660Z,99142.00
2019-03-26T02:04:39.922Z,99145.00
2019-03-26T02:07:09.197Z,99142.00
2019-03-26T02:09:38.459Z,99148.00
2019-03-26T02:12:07.745Z,99147.00
2019-03-26T02:14:37.051Z,99155.00
2019-03-26T02:17:06.329Z,99157.00
2019-03-26T02:19:35.607Z,99159.00
2019-03-26T02:22:04.883Z,99163.00
2019-03-26T02:24:34.427Z,99165.00
2019-03-26T02:27:03.705Z,99157.00
2019-03-26T02:29:33.236Z,99158.00
2019-03-26T02:32:02.760Z,99160.00
2019-03-26T02:34:32.023Z,99165.00
2019-03-26T02:37:01.297Z,99174.00
2019-03-26T02:39:30.852Z,99175.00
2019-03-26T02:42:00.132Z,99179.00
2019-03-26T02:44:29.401Z,99179.00
2019-03-26T02:46:58.667Z,99171.00
2019-03-26T02:49:28.183Z,99167.00
2019-03-26T02:51:57.758Z,99165.00
2019-03-26T02:54:27.033Z,99167.00
2019-03-26T02:56:56.301Z,99168.00
2019-03-26T02:59:25.559Z,99169.00
2019-03-26T03:01:54.892Z,99169.00
2019-03-26T03:04:24.156Z,99169.00
2019-03-26T03:06:53.683Z,99177.00
2019-03-26T03:09:22.941Z,99185.00
2019-03-26T03:11:52.202Z,99191.00
2019-03-26T03:14:21.771Z,99191.00
2019-03-26T03:16:51.035Z,99183.00
2019-03-26T03:19:20.304Z,99194.00
2019-03-26T03:21:49.570Z,99183.00
2019-03-26T03:24:18.843Z,99187.00
2019-03-26T03:26:48.102Z,99193.00
2019-03-26T03:29:17.377Z,99198.00
2019-03-26T03:31:46.651Z,99195.00
2019-03-26T03:34:15.916Z,99199.00
2019-03-26T03:36:45.175Z,99200.00
2019-03-26T03:39:14.451Z,99202.00
2019-03-26T03:41:43.709Z,99201.00
2019-03-26T03:44:13.040Z,99205.00
2019-03-26T03:46:43.583Z,99204.00
2019-03-26T03:49:13.401Z,99200.00
2019-03-26T03:51:44.768Z,99215.00
2019-03-26T03:54:14.219Z,99210.00
2019-03-26T03:56:44.421Z,99224.00
2019-03-26T03:59:13.831Z,99215.00
2019-03-26T04:01:43.089Z,99218.00
2019-03-26T04:04:12.363Z,99232.00
2019-03-26T04:06:41.886Z,99239.00
2019-03-26T04:09:11.164Z,99244.00
2019-03-26T04:11:40.428Z,99235.00
2019-03-26T04:14:09.711Z,99228.00
2019-03-26T04:16:39.035Z,99237.00
2019-03-26T04:19:08.603Z,99240.00
2019-03-26T04:21:38.207Z,99249.00
2019-03-26T04:24:07.494Z,99244.00
2019-03-26T04:26:36.746Z,99248.00
2019-03-26T04:29:06.091Z,99245.00
2019-03-26T04:31:35.607Z,99247.00
2019-03-26T04:34:05.317Z,99245.00
2019-03-26T04:36:34.579Z,99247.00
2019-03-26T04:39:04.491Z,99251.00
2019-03-26T04:41:33.778Z,99248.00
2019-03-26T04:44:03.340Z,99255.00
2019-03-26T04:46:32.599Z,99257.00
2019-03-26T04:49:01.881Z,99257.00
2019-03-26T04:51:31.142Z,99255.00
2019-03-26T04:54:00.416Z,99251.00
2019-03-26T04:56:29.673Z,99256.00
2019-03-26T04:58:59.247Z,99252.00
2019-03-26T05:01:28.522Z,99252.00
2019-03-26T05:03:57.799Z,99256.00
2019-03-26T05:06:37.368Z,99260.00
2019-03-26T05:08:58.066Z,99258.00
2019-03-26T05:11:27.332Z,99251.00
2019-03-26T05:13:56.607Z,99255.00
2019-03-26T05:16:25.871Z,99252.00
2019-03-26T05:18:55.387Z,99260.00
2019-03-26T05:21:24.663Z,99257.00
2019-03-26T05:23:53.928Z,99256.00
2019-03-26T05:26:23.201Z,99256.00
2019-03-26T05:28:52.461Z,99258.00
2019-03-26T05:31:21.746Z,99263.00
2019-03-26T05:33:51.012Z,99274.00
2019-03-26T05:36:20.283Z,99273.00
2019-03-26T05:38:49.549Z,99274.00
2019-03-26T05:41:18.822Z,99278.00
2019-03-26T05:43:48.082Z,99288.00
2019-03-26T05:46:17.690Z,99299.00
2019-03-26T05:48:47.299Z,99296.00
2019-03-26T05:51:16.575Z,99299.00
2019-03-26T05:53:46.096Z,99296.00
2019-03-26T05:56:15.371Z,99297.00
2019-03-26T05:58:44.636Z,99304.00
2019-03-26T06:01:13.911Z,99307.00
2019-03-26T06:03:43.182Z,99314.00
2019-03-26T06:06:12.473Z,99326.00
2019-03-26T06:08:41.726Z,99319.00
2019-03-26T06:11:10.994Z,99310.00
2019-03-26T06:13:40.254Z,99314.00
2019-03-26T06:16:09.525Z,99315.00
2019-03-26T06:18:39.117Z,99312.00
2019-03-26T06:21:08.399Z,99311.00
2019-03-26T06:23:37.656Z,99315.00
2019-03-26T06:26:07.238Z,99322.00
2019-03-26T06:28:36.824Z,99327.00
2019-03-26T06:31:06.094Z,99323.00
2019-03-26T06:33:35.360Z,99333.00
2019-03-26T06:36:04.637Z,99331.00
2019-03-26T06:38:34.236Z,99332.00
2019-03-26T06:41:04.348Z,99343.00
2019-03-26T06:43:33.614Z,99348.00
2019-03-26T06:46:02.891Z,99347.00
2019-03-26T06:48:32.457Z,99348.00
2019-03-26T06:51:01.731Z,99351.00
2019-03-26T06:53:30.995Z,99351.00
2019-03-26T06:56:00.275Z,99354.00
2019-03-26T06:58:29.549Z,99360.00
2019-03-26T07:00:59.295Z,99360.00
2019-03-26T07:03:28.569Z,99364.00
2019-03-26T07:05:57.842Z,99363.00
2019-03-26T07:08:27.112Z,99367.00
2019-03-26T07:10:56.681Z,99363.00
2019-03-26T07:13:25.948Z,99360.00
2019-03-26T07:15:55.484Z,99361.00
2019-03-26T07:18:24.752Z,99365.00
2019-03-26T07:20:54.032Z,99368.00
2019-03-26T07:23:23.300Z,99376.00
2019-03-26T07:25:52.649Z,99362.00
2019-03-26T07:28:21.917Z,99365.00
2019-03-26T07:30:51.193Z,99381.00
2019-03-26T07:33:20.463Z,99374.00
2019-03-26T07:35:49.746Z,99372.00
2019-03-26T07:38:19.014Z,99365.00
2019-03-26T07:40:48.293Z,99377.00
2019-03-26T07:43:17.565Z,99382.00
2019-03-26T07:45:46.844Z,99390.00
2019-03-26T07:48:16.390Z,99392.00
2019-03-26T07:50:45.677Z,99381.00
2019-03-26T07:53:14.943Z,99387.00
2019-03-26T07:55:44.219Z,99384.00
2019-03-26T07:58:13.493Z,99384.00
2019-03-26T08:00:42.769Z,99386.00
2019-03-26T08:03:12.040Z,99388.00
2019-03-26T08:05:41.592Z,99387.00
2019-03-26T08:08:11.196Z,99386.00
2019-03-26T08:10:40.802Z,99401.00
2019-03-26T08:13:10.162Z,99383.00
2019-03-26T08:15:39.438Z,99395.00
2019-03-26T08:18:08.940Z,99388.00
2019-03-26T08:20:38.287Z,99385.00
2019-03-26T08:23:07.552Z,99385.00
2019-03-26T08:25:36.830Z,99386.00
2019-03-26T08:28:06.105Z,99392.00
2019-03-26T08:30:35.778Z,99386.00
2019-03-26T08:33:05.348Z,99381.00
2019-03-26T08:35:34.633Z,99393.00
2019-03-26T08:38:12.369Z,99391.00
2019-03-26T08:40:34.906Z,99393.00
2019-03-26T08:43:04.181Z,99388.00
2019-03-26T08:45:33.450Z,99389.00
2019-03-26T08:48:02.730Z,99387.00
2019-03-26T08:50:32.277Z,99400.00
2019-03-26T08:53:01.556Z,99402.00
2019-03-26T08:55:30.835Z,99410.00
2019-03-26T08:58:00.114Z,99404.00
2019-03-26T09:00:31.933Z,99401.00
2019-03-26T09:03:00.389Z,99416.00
2019-03-26T09:05:29.665Z,99411.00
2019-03-26T09:07:58.947Z,99418.00
2019-03-26T09:10:28.521Z,99421.00
2019-03-26T09:12:57.807Z,99412.00
2019-03-26T09:15:27.075Z,99419.00
2019-03-26T09:17:56.361Z,99417.00
2019-03-26T09:20:25.638Z,99414.00
2019-03-26T09:22:54.921Z,99415.00
2019-03-26T09:25:24.196Z,99418.00
2019-03-26T09:27:53.498Z,99419.00
2019-03-26T09:30:23.028Z,99416.00
2019-03-26T09:32:52.333Z,99421.00
2019-03-26T09:35:21.586Z,99416.00
2019-03-26T09:37:50.868Z,99429.00
2019-03-26T09:40:20.430Z,99446.00
2019-03-26T09:42:49.960Z,99441.00
2019-03-26T09:45:19.239Z,99439.00
2019-03-26T09:47:48.525Z,99433.00
2019-03-26T09:50:22.749Z,99446.00
2019-03-26T09:52:52.023Z,99447.00
2019-03-26T09:55:21.560Z,99452.00
2019-03-26T09:57:50.845Z,99453.00
2019-03-26T10:00:20.208Z,99452.00
2019-03-26T10:02:49.495Z,99457.00
2019-03-26T10:05:18.754Z,99455.00
2019-03-26T10:07:48.035Z,99452.00
2019-03-26T10:10:17.379Z,99456.00
2019-03-26T10:12:46.661Z,99446.00
2019-03-26T10:15:16.075Z,99445.00
2019-03-26T10:17:45.690Z,99439.00
2019-03-26T10:20:16.123Z,99445.00
2019-03-26T10:22:45.708Z,99449.00
2019-03-26T10:25:14.982Z,99448.00
2019-03-26T10:27:44.264Z,99442.00
2019-03-26T10:30:16.826Z,99428.00
2019-03-26T10:32:46.108Z,99442.00
2019-03-26T10:35:15.450Z,99444.00
2019-03-26T10:37:44.726Z,99437.00
2019-03-26T10:40:18.708Z,99433.00
2019-03-26T10:42:48.002Z,99434.00
2019-03-26T10:45:17.281Z,99435.00
2019-03-26T10:47:46.552Z,99421.00
2019-03-26T10:50:15.836Z,99424.00
2019-03-26T10:52:45.112Z,99425.00
2019-03-26T10:55:14.394Z,99423.00
2019-03-26T10:57:44.013Z,99409.00
2019-03-26T11:00:13.708Z,99414.00
2019-03-26T11:02:42.981Z,99418.00
2019-03-26T11:05:12.603Z,99415.00
2019-03-26T11:07:42.820Z,99409.00
2019-03-26T11:10:12.362Z,99413.00
2019-03-26T11:12:41.635Z,99403.00
2019-03-26T11:15:13.053Z,99400.00
2019-03-26T11:17:42.610Z,99411.00
2019-03-26T11:20:12.131Z,99405.00
2019-03-26T11:22:41.538Z,99404.00
2019-03-26T11:25:12.341Z,99399.00
2019-03-26T11:27:41.677Z,99402.00
2019-03-26T11:30:11.568Z,99398.00
2019-03-26T11:32:40.844Z,99392.00
2019-03-26T11:35:10.560Z,99396.00
2019-03-26T11:37:40.315Z,99404.00
2019-03-26T11:40:10.854Z,99399.00
2019-03-26T11:42:40.193Z,99406.00
2019-03-26T11:45:11.335Z,99395.00
2019-03-26T11:47:40.875Z,99396.00
2019-03-26T11:50:10.953Z,99406.00
2019-03-26T11:52:40.753Z,99394.00
2019-03-26T11:55:11.374Z,99397.00
2019-03-26T11:57:40.643Z,99395.00
2019-03-26T12:00:14.563Z,99388.00
2019-03-26T12:02:43.823Z,99387.00
2019-03-26T12:05:14.244Z,99397.00
2019-03-26T12:07:43.509Z,99390.00
2019-03-26T12:10:13.333Z,99390.00
2019-03-26T12:12:42.597Z,99385.00
2019-03-26T12:15:12.795Z,99384.00
2019-03-26T12:17:42.064Z,99374.00
2019-03-26T12:20:11.810Z,99380.00
2019-03-26T12:22:41.077Z,99380.00
2019-03-26T12:25:13.274Z,99376.00
2019-03-26T12:27:42.540Z,99364.00
2019-03-26T12:30:12.526Z,99368.00
2019-03-26T12:32:41.901Z,99368.00
2019-03-26T12:35:15.887Z,99369.00
2019-03-26T12:37:45.407Z,99373.00
2019-03-26T12:40:14.692Z,99385.00
2019-03-26T12:42:43.961Z,99371.00
2019-03-26T12:45:13.306Z,99366.00
2019-03-26T12:47:42.575Z,99363.00
2019-03-26T12:50:12.522Z,99376.00
2019-03-26T12:52:42.129Z,99358.00
2019-03-26T12:55:11.406Z,99351.00
2019-03-26T12:57:40.673Z,99344.00
2019-03-26T13:00:11.164Z,99344.00
2019-03-26T13:02:40.425Z,99344.00
2019-03-26T13:05:09.978Z,99349.00
2019-03-26T13:07:39.242Z,99345.00
2019-03-26T13:10:13.846Z,99346.00
2019-03-26T13:12:40.943Z,99342.00
2019-03-26T13:15:10.287Z,99342.00
2019-03-26T13:17:39.566Z,99346.00
2019-03-26T13:20:09.007Z,99334.00
2019-03-26T13:22:38.350Z,99336.00
2019-03-26T13:25:08.936Z,99344.00
2019-03-26T13:27:38.482Z,99332.00
2019-03-26T13:30:08.971Z,99333.00
2019-03-26T13:32:38.257Z,99328.00
2019-03-26T13:35:08.069Z,99332.00
2019-03-26T13:37:37.424Z,99330.00
2019-03-26T13:40:07.123Z,99324.00
2019-03-26T13:42:36.404Z,99326.00
2019-03-26T13:45:07.486Z,99326.00
2019-03-26T13:47:36.764Z,99319.00
2019-03-26T13:50:08.645Z,99317.00
2019-03-26T13:52:37.933Z,99324.00
2019-03-26T13:55:08.831Z,99313.00
2019-03-26T13:57:38.114Z,99307.00
2019-03-26T14:00:13.055Z,99304.00
2019-03-26T14:02:42.340Z,99310.00
2019-03-26T14:05:26.971Z,99316.00
2019-03-26T14:07:56.257Z,99298.00
2019-03-26T14:10:25.591Z,99297.00
2019-03-26T14:12:54.941Z,99299.00
2019-03-26T14:15:24.473Z,99306.00
2019-03-26T14:17:53.750Z,99292.00
2019-03-26T14:20:23.157Z,99294.00
2019-03-26T14:22:52.443Z,99294.00
2019-03-26T14:25:21.707Z,99299.00
2019-03-26T14:27:51.003Z,99293.00
2019-03-26T14:30:39.060Z,99296.00
2019-03-26T14:33:08.799Z,99295.00
2019-03-26T14:35:39.068Z,99292.00
2019-03-26T14:38:08.354Z,99283.00
2019-03-26T14:40:37.675Z,99286.00
2019-03-26T14:43:07.356Z,99288.00
2019-03-26T14:45:36.690Z,99286.00
2019-03-26T14:48:06.138Z,99289.00
2019-03-26T14:50:35.473Z,99295.00
2019-03-26T14:53:05.076Z,99307.00
2019-03-26T14:55:34.343Z,99289.00
2019-03-26T14:58:03.619Z,99286.00
2019-03-26T15:00:33.050Z,99291.00
2019-03-26T15:03:02.318Z,99288.00
2019-03-26T15:05:31.587Z,99305.00
2019-03-26T15:08:00.868Z,99289.00
2019-03-26T15:10:30.135Z,99292.00
2019-03-26T15:12:59.413Z,99283.00
2019-03-26T15:15:28.683Z,99290.00
2019-03-26T15:17:58.292Z,99293.00
2019-03-26T15:20:27.557Z,99290.00
2019-03-26T15:22:58.215Z,99286.00
2019-03-26T15:25:27.578Z,99292.00
2019-03-26T15:27:56.846Z,99294.00
2019-03-26T15:30:26.113Z,99305.00
2019-03-26T15:32:55.723Z,99304.00
2019-03-26T15:35:24.985Z,99307.00
2019-03-26T15:37:54.293Z,99304.00
2019-03-26T15:40:23.523Z,99291.00
2019-03-26T15:42:52.808Z,99314.00
2019-03-26T15:45:22.448Z,99311.00
2019-03-26T15:47:51.723Z,99308.00
2019-03-26T15:50:45.975Z,99309.00
2019-03-26T15:53:15.892Z,99313.00
2019-03-26T15:55:45.307Z,99311.00
2019-03-26T15:58:14.570Z,99316.00
2019-03-26T16:00:43.841Z,99318.00
2019-03-26T16:03:13.134Z,99320.00
2019-03-26T16:05:42.408Z,99324.00
2019-03-26T16:08:11.684Z,99324.00
2019-03-26T16:10:40.960Z,99316.00
2019-03-26T16:13:10.244Z,99316.00
2019-03-26T16:15:44.849Z,99313.00
2019-03-26T16:18:10.668Z,99311.00
2019-03-26T16:20:40.193Z,99326.00
2019-03-26T16:23:09.468Z,99335.00
2019-03-26T16:25:38.825Z,99326.00
2019-03-26T16:28:08.097Z,99333.00
2019-03-26T16:30:37.386Z,99338.00
2019-03-26T16:33:06.650Z,99337.00
2019-03-26T16:35:35.929Z,99338.00
2019-03-26T16:38:05.343Z,99345.00
2019-03-26T16:40:34.898Z,99343.00
2019-03-26T16:43:04.181Z,99346.00
2019-03-26T16:45:33.808Z,99354.00
2019-03-26T16:48:03.076Z,99340.00
2019-03-26T16:50:32.351Z,99351.00
2019-03-26T16:53:01.633Z,99354.00
2019-03-26T16:55:30.917Z,99347.00
2019-03-26T16:58:00.181Z,99340.00
2019-03-26T17:00:33.593Z,99356.00
2019-03-26T17:03:02.933Z,99354.00
2019-03-26T17:05:32.221Z,99356.00
2019-03-26T17:08:01.568Z,99355.00
2019-03-26T17:10:30.910Z,99364.00
2019-03-26T17:13:00.350Z,99362.00
2019-03-26T17:15:29.914Z,99368.00
2019-03-26T17:17:59.348Z,99368.00
2019-03-26T17:20:28.629Z,99371.00
2019-03-26T17:22:58.433Z,99360.00
2019-03-26T17:25:28.343Z,99359.00
2019-03-26T17:27:57.955Z,99356.00
2019-03-26T17:30:27.230Z,99358.00
2019-03-26T17:32:56.762Z,99364.00
2019-03-26T17:35:26.043Z,99375.00
2019-03-26T17:38:00.022Z,99368.00
2019-03-26T17:40:26.297Z,99370.00
2019-03-26T17:42:55.562Z,99374.00
2019-03-26T17:45:24.831Z,99365.00
2019-03-26T17:47:54.109Z,99370.00
2019-03-26T17:50:23.386Z,99373.00
2019-03-26T17:52:52.660Z,99371.00
2019-03-26T17:55:22.195Z,99372.00
2019-03-26T17:57:51.459Z,99383.00
2019-03-26T18:00:25.445Z,99379.00
2019-03-26T18:02:54.720Z,99380.00
2019-03-26T18:05:28.612Z,99384.00
2019-03-26T18:07:58.549Z,99382.00
2019-03-26T18:10:27.890Z,99388.00
2019-03-26T18:12:57.441Z,99391.00
2019-03-26T18:15:26.722Z,99387.00
2019-03-26T18:17:55.987Z,99394.00
2019-03-26T18:20:32.453Z,99399.00
2019-03-26T18:22:56.268Z,99389.00
2019-03-26T18:25:25.785Z,99400.00
2019-03-26T18:27:55.399Z,99401.00
2019-03-26T18:30:24.676Z,99393.00
2019-03-26T18:32:53.943Z,99389.00
2019-03-26T18:35:23.217Z,99396.00
2019-03-26T18:37:52.752Z,99395.00
2019-03-26T18:40:22.013Z,99396.00
2019-03-26T18:42:51.341Z,99391.00
2019-03-26T18:45:20.569Z,99397.00
2019-03-26T18:47:49.863Z,99403.00
2019-03-26T18:50:19.458Z,99402.00
2019-03-26T18:52:48.740Z,99411.00
2019-03-26T18:55:18.329Z,99399.00
2019-03-26T18:57:47.608Z,99404.00
2019-03-26T19:00:31.987Z,99406.00
2019-03-26T19:03:01.406Z,99408.00
2019-03-26T19:05:30.744Z,99400.00
2019-03-26T19:08:00.386Z,99399.00
2019-03-26T19:10:34.550Z,99399.00
2019-03-26T19:13:03.900Z,99403.00
2019-03-26T19:15:33.167Z,99402.00
2019-03-26T19:18:02.450Z,99406.00
2019-03-26T19:20:31.790Z,99400.00
2019-03-26T19:23:01.408Z,99391.00
2019-03-26T19:25:30.680Z,99403.00
2019-03-26T19:27:59.958Z,99400.00
2019-03-26T19:30:29.229Z,99403.00
2019-03-26T19:32:58.506Z,99406.00
2019-03-26T19:35:27.778Z,99403.00
2019-03-26T19:37:57.055Z,99402.00
2019-03-26T19:40:26.332Z,99409.00
2019-03-26T19:42:55.606Z,99408.00
2019-03-26T19:45:24.876Z,99404.00
2019-03-26T19:47:54.150Z,99404.00
2019-03-26T19:50:23.490Z,99400.00
2019-03-26T19:52:52.863Z,99410.00
2019-03-26T19:55:22.122Z,99410.00
2019-03-26T19:57:51.401Z,99420.00
2019-03-26T20:00:20.809Z,99412.00
2019-03-26T20:02:50.089Z,99411.00
2019-03-26T20:05:19.356Z,99413.00
2019-03-26T20:07:48.633Z,99415.00
2019-03-26T20:10:18.657Z,99421.00
2019-03-26T20:12:48.059Z,99417.00
2019-03-26T20:15:17.769Z,99410.00
2019-03-26T20:17:47.048Z,99412.00
2019-03-26T20:20:16.957Z,99411.00
2019-03-26T20:22:46.302Z,99413.00
2019-03-26T20:25:15.824Z,99411.00
2019-03-26T20:27:45.097Z,99414.00
2019-03-26T20:30:17.016Z,99415.00
2019-03-26T20:32:46.290Z,99417.00
2019-03-26T20:35:16.594Z,99412.00
2019-03-26T20:37:45.872Z,99403.00
2019-03-26T20:40:15.751Z,99412.00
2019-03-26T20:42:45.027Z,99421.00
2019-03-26T20:45:14.674Z,99427.00
2019-03-26T20:47:43.880Z,99423.00
2019-03-26T20:50:14.263Z,99420.00
2019-03-26T20:52:43.535Z,99421.00
2019-03-26T20:55:13.611Z,99413.00
2019-03-26T20:57:43.218Z,99416.00
2019-03-26T21:00:16.931Z,99420.00
2019-03-26T21:02:46.209Z,99417.00
2019-03-26T21:05:15.475Z,99416.00
2019-03-26T21:07:47.736Z,99423.00
2019-03-26T21:10:15.820Z,99421.00
2019-03-26T21:12:45.102Z,99427.00
2019-03-26T21:15:14.712Z,99435.00
2019-03-26T21:17:43.993Z,99428.00
2019-03-26T21:20:13.328Z,99433.00
2019-03-26T21:22:42.611Z,99432.00
2019-03-26T21:25:12.057Z,99434.00
2019-03-26T21:27:41.339Z,99438.00
2019-03-26T21:30:15.777Z,99437.00
2019-03-26T21:32:44.793Z,99445.00
2019-03-26T21:35:15.442Z,99441.00
2019-03-26T21:37:44.710Z,99433.00
2019-03-26T21:40:14.417Z,99440.00
2019-03-26T21:42:43.696Z,99442.00
2019-03-26T21:45:14.271Z,99439.00
2019-03-26T21:47:43.875Z,99429.00
2019-03-26T21:50:13.283Z,99435.00
2019-03-26T21:52:42.554Z,99429.00
2019-03-26T21:55:13.490Z,99440.00
2019-03-26T21:57:42.856Z,99438.00
2019-03-26T22:00:12.838Z,99454.00
2019-03-26T22:02:42.110Z,99448.00
2019-03-26T22:05:12.494Z,99449.00
2019-03-26T22:07:41.759Z,99455.00
2019-03-26T22:10:12.550Z,99456.00
2019-03-26T22:12:41.817Z,99462.00
2019-03-26T22:15:12.645Z,99462.00
2019-03-26T22:17:41.913Z,99461.00
2019-03-26T22:20:11.335Z,99455.00
2019-03-26T22:22:40.599Z,99458.00
2019-03-26T22:25:10.886Z,99453.00
2019-03-26T22:27:40.155Z,99454.00
2019-03-26T22:30:10.947Z,99450.00
2019-03-26T22:32:40.212Z,99460.00
2019-03-26T22:35:10.369Z,99454.00
2019-03-26T22:37:39.911Z,99449.00
2019-03-26T22:40:09.793Z,99450.00
2019-03-26T22:42:39.153Z,99453.00
2019-03-26T22:45:10.019Z,99445.00
2019-03-26T22:47:40.226Z,99438.00
2019-03-26T22:50:12.213Z,99434.00
2019-03-26T22:52:41.488Z,99438.00
2019-03-26T22:55:11.601Z,99447.00
2019-03-26T22:57:41.376Z,99456.00
2019-03-26T23:00:17.130Z,99449.00
2019-03-26T23:02:46.476Z,99451.00
2019-03-26T23:05:17.969Z,99454.00
2019-03-26T23:07:47.236Z,99442.00
2019-03-26T23:10:17.422Z,99442.00
2019-03-26T23:12:46.694Z,99447.00
2019-03-26T23:15:22.830Z,99445.00
2019-03-26T23:17:52.169Z,99449.00
2019-03-26T23:20:21.518Z,99463.00
2019-03-26T23:22:50.854Z,99452.00
2019-03-26T23:25:20.130Z,99450.00
2019-03-26T23:27:49.399Z,99456.00
2019-03-26T23:30:19.629Z,99455.00
2019-03-26T23:32:48.921Z,99461.00
2019-03-26T23:35:18.182Z,99442.00
2019-03-26T23:37:47.452Z,99454.00
2019-03-26T23:40:16.971Z,99451.00
2019-03-26T23:42:46.503Z,99452.00
2019-03-26T23:45:16.117Z,99457.00
2019-03-26T23:47:45.392Z,99453.00
2019-03-26T23:50:16.044Z,99455.00
2019-03-26T23:52:45.316Z,99457.00
2019-03-26T23:55:14.663Z,99454.00
2019-03-26T23:57:43.936Z,99453.00
